sensor_id;sensor_type;location;lat;lon;timestamp;P1;durP1;ratioP1;P2;durP2;ratioP2
71910;SDS011;59783;52.232;5.170;2022-10-16T00:00:22;14.15;;;12.85;;
71910;SDS011;59783;52.232;5.170;2022-10-16T00:02:47;17.77;;;16.27;;
71910;SDS011;59783;52.232;5.170;2022-10-16T00:05:13;13.93;;;12.63;;
71910;SDS011;59783;52.232;5.170;2022-10-16T00:07:38;14.07;;;12.77;;
71910;SDS011;59783;52.232;5.170;2022-10-16T00:10:03;14.10;;;12.80;;
71910;SDS011;59783;52.232;5.170;2022-10-16T00:12:29;15.48;;;14.07;;
71910;SDS011;59783;52.232;5.170;2022-10-16T00:14:54;14.02;;;12.73;;
71910;SDS011;59783;52.232;5.170;2022-10-16T00:17:20;14.63;;;13.32;;
71910;SDS011;59783;52.232;5.170;2022-10-16T00:19:45;13.20;;;11.93;;
71910;SDS011;59783;52.232;5.170;2022-10-16T00:22:10;13.45;;;12.15;;
71910;SDS011;59783;52.232;5.170;2022-10-16T00:24:36;13.23;;;11.93;;
71910;SDS011;59783;52.232;5.170;2022-10-16T00:27:01;15.48;;;14.07;;
71910;SDS011;59783;52.232;5.170;2022-10-16T00:29:26;15.73;;;14.30;;
71910;SDS011;59783;52.232;5.170;2022-10-16T00:31:52;15.18;;;13.77;;
71910;SDS011;59783;52.232;5.170;2022-10-16T00:34:17;14.02;;;12.65;;
71910;SDS011;59783;52.232;5.170;2022-10-16T00:36:42;14.50;;;13.10;;
71910;SDS011;59783;52.232;5.170;2022-10-16T00:39:08;15.50;;;14.07;;
71910;SDS011;59783;52.232;5.170;2022-10-16T00:41:33;15.45;;;14.02;;
71910;SDS011;59783;52.232;5.170;2022-10-16T00:44:00;14.50;;;13.10;;
71910;SDS011;59783;52.232;5.170;2022-10-16T00:49:06;14.98;;;13.55;;
71910;SDS011;59783;52.232;5.170;2022-10-16T00:51:38;16.02;;;14.52;;
71910;SDS011;59783;52.232;5.170;2022-10-16T00:54:06;15.93;;;14.43;;
71910;SDS011;59783;52.232;5.170;2022-10-16T00:56:34;16.58;;;15.05;;
71910;SDS011;59783;52.232;5.170;2022-10-16T00:59:01;15.15;;;13.65;;
71910;SDS011;59783;52.232;5.170;2022-10-16T01:01:30;15.82;;;14.32;;
71910;SDS011;59783;52.232;5.170;2022-10-16T01:03:55;17.05;;;15.45;;
71910;SDS011;59783;52.232;5.170;2022-10-16T01:06:22;15.13;;;13.63;;
71910;SDS011;59783;52.232;5.170;2022-10-16T01:11:34;19.55;;;17.85;;
71910;SDS011;59783;52.232;5.170;2022-10-16T01:14:06;15.77;;;14.25;;
71910;SDS011;59783;52.232;5.170;2022-10-16T01:16:39;21.30;;;19.45;;
71910;SDS011;59783;52.232;5.170;2022-10-16T01:19:11;17.20;;;15.57;;
71910;SDS011;59783;52.232;5.170;2022-10-16T01:21:40;17.95;;;16.25;;
71910;SDS011;59783;52.232;5.170;2022-10-16T01:27:16;17.30;;;15.68;;
71910;SDS011;59783;52.232;5.170;2022-10-16T01:32:31;16.35;;;14.75;;
71910;SDS011;59783;52.232;5.170;2022-10-16T01:35:01;16.63;;;15.02;;
71910;SDS011;59783;52.232;5.170;2022-10-16T01:37:39;18.25;;;16.55;;
71910;SDS011;59783;52.232;5.170;2022-10-16T01:40:11;16.60;;;15.00;;
71910;SDS011;59783;52.232;5.170;2022-10-16T01:42:39;16.63;;;15.02;;
71910;SDS011;59783;52.232;5.170;2022-10-16T01:45:07;17.98;;;16.27;;
71910;SDS011;59783;52.232;5.170;2022-10-16T01:47:36;17.35;;;15.70;;
71910;SDS011;59783;52.232;5.170;2022-10-16T01:50:02;17.60;;;15.90;;
71910;SDS011;59783;52.232;5.170;2022-10-16T01:52:29;17.67;;;15.98;;
71910;SDS011;59783;52.232;5.170;2022-10-16T01:54:56;17.00;;;15.38;;
71910;SDS011;59783;52.232;5.170;2022-10-16T01:57:22;16.58;;;14.98;;
71910;SDS011;59783;52.232;5.170;2022-10-16T01:59:50;21.55;;;19.65;;
71910;SDS011;59783;52.232;5.170;2022-10-16T02:02:18;17.30;;;15.68;;
71910;SDS011;59783;52.232;5.170;2022-10-16T02:04:46;17.15;;;15.52;;
71910;SDS011;59783;52.232;5.170;2022-10-16T02:07:14;17.17;;;15.55;;
71910;SDS011;59783;52.232;5.170;2022-10-16T02:09:40;18.33;;;16.63;;
71910;SDS011;59783;52.232;5.170;2022-10-16T02:12:10;17.42;;;15.80;;
71910;SDS011;59783;52.232;5.170;2022-10-16T02:14:39;18.30;;;16.60;;
71910;SDS011;59783;52.232;5.170;2022-10-16T02:17:10;16.25;;;14.65;;
71910;SDS011;59783;52.232;5.170;2022-10-16T02:19:37;17.08;;;15.45;;
71910;SDS011;59783;52.232;5.170;2022-10-16T02:22:03;19.25;;;17.52;;
71910;SDS011;59783;52.232;5.170;2022-10-16T02:24:32;17.75;;;16.05;;
71910;SDS011;59783;52.232;5.170;2022-10-16T02:29:47;17.70;;;16.00;;
71910;SDS011;59783;52.232;5.170;2022-10-16T02:32:15;18.42;;;16.73;;
71910;SDS011;59783;52.232;5.170;2022-10-16T02:34:42;17.73;;;16.02;;
71910;SDS011;59783;52.232;5.170;2022-10-16T02:37:09;17.55;;;15.85;;
71910;SDS011;59783;52.232;5.170;2022-10-16T02:39:35;18.20;;;16.50;;
71910;SDS011;59783;52.232;5.170;2022-10-16T02:42:01;16.83;;;15.20;;
71910;SDS011;59783;52.232;5.170;2022-10-16T02:44:26;16.83;;;15.20;;
71910;SDS011;59783;52.232;5.170;2022-10-16T02:46:51;17.42;;;15.73;;
71910;SDS011;59783;52.232;5.170;2022-10-16T02:49:17;17.52;;;15.82;;
71910;SDS011;59783;52.232;5.170;2022-10-16T02:51:43;19.08;;;17.27;;
71910;SDS011;59783;52.232;5.170;2022-10-16T02:54:08;18.77;;;17.00;;
71910;SDS011;59783;52.232;5.170;2022-10-16T02:56:33;22.15;;;20.23;;
71910;SDS011;59783;52.232;5.170;2022-10-16T02:58:59;18.30;;;16.58;;
71910;SDS011;59783;52.232;5.170;2022-10-16T03:01:24;18.95;;;17.20;;
71910;SDS011;59783;52.232;5.170;2022-10-16T03:03:49;18.15;;;16.45;;
71910;SDS011;59783;52.232;5.170;2022-10-16T03:06:15;18.27;;;16.48;;
71910;SDS011;59783;52.232;5.170;2022-10-16T03:08:40;18.02;;;16.33;;
71910;SDS011;59783;52.232;5.170;2022-10-16T03:11:05;19.27;;;17.48;;
71910;SDS011;59783;52.232;5.170;2022-10-16T03:13:31;18.40;;;16.70;;
71910;SDS011;59783;52.232;5.170;2022-10-16T03:15:56;18.52;;;16.80;;
71910;SDS011;59783;52.232;5.170;2022-10-16T03:18:21;17.58;;;15.88;;
71910;SDS011;59783;52.232;5.170;2022-10-16T03:20:47;18.15;;;16.42;;
71910;SDS011;59783;52.232;5.170;2022-10-16T03:23:12;18.90;;;16.83;;
71910;SDS011;59783;52.232;5.170;2022-10-16T03:25:38;18.70;;;16.92;;
71910;SDS011;59783;52.232;5.170;2022-10-16T03:28:03;19.05;;;17.25;;
71910;SDS011;59783;52.232;5.170;2022-10-16T03:30:28;18.65;;;16.92;;
71910;SDS011;59783;52.232;5.170;2022-10-16T03:32:54;20.42;;;18.60;;
71910;SDS011;59783;52.232;5.170;2022-10-16T03:35:23;18.80;;;17.00;;
71910;SDS011;59783;52.232;5.170;2022-10-16T03:37:49;17.58;;;15.88;;
71910;SDS011;59783;52.232;5.170;2022-10-16T03:40:14;18.70;;;16.95;;
71910;SDS011;59783;52.232;5.170;2022-10-16T03:42:40;19.20;;;17.40;;
71910;SDS011;59783;52.232;5.170;2022-10-16T03:45:07;17.15;;;15.45;;
71910;SDS011;59783;52.232;5.170;2022-10-16T03:47:32;17.33;;;15.63;;
71910;SDS011;59783;52.232;5.170;2022-10-16T03:49:59;17.90;;;16.20;;
71910;SDS011;59783;52.232;5.170;2022-10-16T03:52:24;18.13;;;16.42;;
71910;SDS011;59783;52.232;5.170;2022-10-16T03:54:50;18.60;;;16.88;;
71910;SDS011;59783;52.232;5.170;2022-10-16T03:57:15;18.48;;;16.77;;
71910;SDS011;59783;52.232;5.170;2022-10-16T03:59:40;18.10;;;16.40;;
71910;SDS011;59783;52.232;5.170;2022-10-16T04:02:06;18.27;;;16.55;;
71910;SDS011;59783;52.232;5.170;2022-10-16T04:04:31;18.63;;;16.88;;
71910;SDS011;59783;52.232;5.170;2022-10-16T04:06:57;22.55;;;20.55;;
71910;SDS011;59783;52.232;5.170;2022-10-16T04:09:22;18.48;;;16.75;;
71910;SDS011;59783;52.232;5.170;2022-10-16T04:11:47;18.92;;;17.15;;
71910;SDS011;59783;52.232;5.170;2022-10-16T04:14:12;19.05;;;17.25;;
71910;SDS011;59783;52.232;5.170;2022-10-16T04:16:38;18.05;;;16.35;;
71910;SDS011;59783;52.232;5.170;2022-10-16T04:19:03;18.63;;;16.90;;
71910;SDS011;59783;52.232;5.170;2022-10-16T04:21:28;19.25;;;17.45;;
71910;SDS011;59783;52.232;5.170;2022-10-16T04:23:54;17.42;;;15.73;;
71910;SDS011;59783;52.232;5.170;2022-10-16T04:26:19;18.45;;;16.73;;
71910;SDS011;59783;52.232;5.170;2022-10-16T04:28:44;18.60;;;16.88;;
71910;SDS011;59783;52.232;5.170;2022-10-16T04:31:10;17.85;;;16.15;;
71910;SDS011;59783;52.232;5.170;2022-10-16T04:33:35;17.70;;;16.00;;
71910;SDS011;59783;52.232;5.170;2022-10-16T04:36:01;17.92;;;16.23;;
71910;SDS011;59783;52.232;5.170;2022-10-16T04:38:27;18.58;;;16.85;;
71910;SDS011;59783;52.232;5.170;2022-10-16T04:40:52;18.92;;;17.13;;
71910;SDS011;59783;52.232;5.170;2022-10-16T04:43:18;18.52;;;16.80;;
71910;SDS011;59783;52.232;5.170;2022-10-16T04:45:43;19.17;;;17.45;;
71910;SDS011;59783;52.232;5.170;2022-10-16T04:48:09;17.98;;;16.27;;
71910;SDS011;59783;52.232;5.170;2022-10-16T04:50:34;19.13;;;17.42;;
71910;SDS011;59783;52.232;5.170;2022-10-16T04:53:00;18.25;;;16.55;;
71910;SDS011;59783;52.232;5.170;2022-10-16T04:55:25;17.50;;;15.82;;
71910;SDS011;59783;52.232;5.170;2022-10-16T04:57:50;19.23;;;17.50;;
71910;SDS011;59783;52.232;5.170;2022-10-16T05:00:16;18.02;;;16.33;;
71910;SDS011;59783;52.232;5.170;2022-10-16T05:02:41;18.17;;;16.48;;
71910;SDS011;59783;52.232;5.170;2022-10-16T05:05:07;17.40;;;15.77;;
71910;SDS011;59783;52.232;5.170;2022-10-16T05:07:32;17.88;;;16.25;;
71910;SDS011;59783;52.232;5.170;2022-10-16T05:09:57;17.92;;;16.23;;
71910;SDS011;59783;52.232;5.170;2022-10-16T05:12:23;18.90;;;17.10;;
71910;SDS011;59783;52.232;5.170;2022-10-16T05:14:48;18.50;;;16.80;;
71910;SDS011;59783;52.232;5.170;2022-10-16T05:17:13;18.88;;;17.08;;
71910;SDS011;59783;52.232;5.170;2022-10-16T05:19:39;19.17;;;17.38;;
71910;SDS011;59783;52.232;5.170;2022-10-16T05:22:04;17.63;;;15.93;;
71910;SDS011;59783;52.232;5.170;2022-10-16T05:24:29;18.42;;;16.73;;
71910;SDS011;59783;52.232;5.170;2022-10-16T05:26:55;17.83;;;16.10;;
71910;SDS011;59783;52.232;5.170;2022-10-16T05:29:21;18.75;;;17.02;;
71910;SDS011;59783;52.232;5.170;2022-10-16T05:31:46;18.00;;;16.30;;
71910;SDS011;59783;52.232;5.170;2022-10-16T05:34:11;18.27;;;16.58;;
71910;SDS011;59783;52.232;5.170;2022-10-16T05:36:37;17.95;;;16.25;;
71910;SDS011;59783;52.232;5.170;2022-10-16T05:39:02;19.15;;;17.35;;
71910;SDS011;59783;52.232;5.170;2022-10-16T05:41:28;20.02;;;18.20;;
71910;SDS011;59783;52.232;5.170;2022-10-16T05:43:53;17.92;;;16.23;;
71910;SDS011;59783;52.232;5.170;2022-10-16T05:46:19;19.55;;;17.75;;
71910;SDS011;59783;52.232;5.170;2022-10-16T05:48:44;18.63;;;16.83;;
71910;SDS011;59783;52.232;5.170;2022-10-16T05:51:10;18.40;;;16.70;;
71910;SDS011;59783;52.232;5.170;2022-10-16T05:53:37;18.40;;;16.70;;
71910;SDS011;59783;52.232;5.170;2022-10-16T05:56:04;17.73;;;16.00;;
71910;SDS011;59783;52.232;5.170;2022-10-16T05:58:33;18.65;;;16.95;;
71910;SDS011;59783;52.232;5.170;2022-10-16T06:01:02;17.80;;;16.10;;
71910;SDS011;59783;52.232;5.170;2022-10-16T06:03:29;18.40;;;16.70;;
71910;SDS011;59783;52.232;5.170;2022-10-16T06:05:54;20.30;;;18.50;;
71910;SDS011;59783;52.232;5.170;2022-10-16T06:08:20;21.20;;;19.30;;
71910;SDS011;59783;52.232;5.170;2022-10-16T06:10:46;22.65;;;20.65;;
71910;SDS011;59783;52.232;5.170;2022-10-16T06:13:12;21.55;;;19.63;;
71910;SDS011;59783;52.232;5.170;2022-10-16T06:15:38;19.58;;;17.85;;
71910;SDS011;59783;52.232;5.170;2022-10-16T06:18:09;9.38;;;8.68;;
71910;SDS011;59783;52.232;5.170;2022-10-16T06:20:34;10.73;;;9.93;;
71910;SDS011;59783;52.232;5.170;2022-10-16T06:23:00;4.45;;;3.72;;
71910;SDS011;59783;52.232;5.170;2022-10-16T06:25:25;4.25;;;3.53;;
71910;SDS011;59783;52.232;5.170;2022-10-16T06:27:51;4.97;;;4.38;;
71910;SDS011;59783;52.232;5.170;2022-10-16T06:30:16;4.45;;;3.63;;
71910;SDS011;59783;52.232;5.170;2022-10-16T06:32:41;4.85;;;3.60;;
71910;SDS011;59783;52.232;5.170;2022-10-16T06:35:07;4.57;;;3.53;;
71910;SDS011;59783;52.232;5.170;2022-10-16T06:37:32;4.10;;;2.95;;
71910;SDS011;59783;52.232;5.170;2022-10-16T06:39:57;4.22;;;2.78;;
71910;SDS011;59783;52.232;5.170;2022-10-16T06:42:23;4.47;;;3.47;;
71910;SDS011;59783;52.232;5.170;2022-10-16T06:44:48;4.15;;;3.05;;
71910;SDS011;59783;52.232;5.170;2022-10-16T06:47:13;4.50;;;3.67;;
71910;SDS011;59783;52.232;5.170;2022-10-16T06:49:39;6.43;;;5.82;;
71910;SDS011;59783;52.232;5.170;2022-10-16T06:52:04;4.10;;;2.83;;
71910;SDS011;59783;52.232;5.170;2022-10-16T06:54:29;4.05;;;2.88;;
71910;SDS011;59783;52.232;5.170;2022-10-16T06:56:55;4.20;;;2.97;;
71910;SDS011;59783;52.232;5.170;2022-10-16T06:59:21;4.05;;;2.90;;
71910;SDS011;59783;52.232;5.170;2022-10-16T07:01:46;4.35;;;3.38;;
71910;SDS011;59783;52.232;5.170;2022-10-16T07:04:11;4.45;;;3.35;;
71910;SDS011;59783;52.232;5.170;2022-10-16T07:06:37;4.63;;;3.97;;
71910;SDS011;59783;52.232;5.170;2022-10-16T07:09:03;4.63;;;3.70;;
71910;SDS011;59783;52.232;5.170;2022-10-16T07:13:55;4.47;;;3.43;;
71910;SDS011;59783;52.232;5.170;2022-10-16T07:16:22;4.25;;;3.08;;
71910;SDS011;59783;52.232;5.170;2022-10-16T07:18:48;4.85;;;4.07;;
71910;SDS011;59783;52.232;5.170;2022-10-16T07:21:17;4.55;;;3.35;;
71910;SDS011;59783;52.232;5.170;2022-10-16T07:23:44;4.85;;;4.10;;
71910;SDS011;59783;52.232;5.170;2022-10-16T07:26:10;4.68;;;3.67;;
71910;SDS011;59783;52.232;5.170;2022-10-16T07:28:36;4.95;;;4.22;;
71910;SDS011;59783;52.232;5.170;2022-10-16T07:31:02;4.88;;;4.05;;
71910;SDS011;59783;52.232;5.170;2022-10-16T07:33:29;7.88;;;7.18;;
71910;SDS011;59783;52.232;5.170;2022-10-16T07:35:54;4.80;;;4.05;;
71910;SDS011;59783;52.232;5.170;2022-10-16T07:38:20;5.30;;;4.80;;
71910;SDS011;59783;52.232;5.170;2022-10-16T07:40:46;5.45;;;4.93;;
71910;SDS011;59783;52.232;5.170;2022-10-16T07:43:12;5.22;;;4.68;;
71910;SDS011;59783;52.232;5.170;2022-10-16T07:45:46;4.80;;;3.85;;
71910;SDS011;59783;52.232;5.170;2022-10-16T07:48:15;4.93;;;4.18;;
71910;SDS011;59783;52.232;5.170;2022-10-16T07:50:41;5.25;;;4.75;;
71910;SDS011;59783;52.232;5.170;2022-10-16T07:53:07;7.47;;;6.88;;
71910;SDS011;59783;52.232;5.170;2022-10-16T07:55:33;5.03;;;4.28;;
71910;SDS011;59783;52.232;5.170;2022-10-16T07:57:58;5.13;;;4.50;;
71910;SDS011;59783;52.232;5.170;2022-10-16T08:00:23;5.53;;;4.97;;
71910;SDS011;59783;52.232;5.170;2022-10-16T08:02:48;5.38;;;4.85;;
71910;SDS011;59783;52.232;5.170;2022-10-16T08:05:14;5.22;;;4.70;;
71910;SDS011;59783;52.232;5.170;2022-10-16T08:07:39;4.95;;;4.10;;
71910;SDS011;59783;52.232;5.170;2022-10-16T08:10:05;5.85;;;5.25;;
71910;SDS011;59783;52.232;5.170;2022-10-16T08:12:30;5.35;;;4.80;;
71910;SDS011;59783;52.232;5.170;2022-10-16T08:14:56;5.20;;;4.50;;
71910;SDS011;59783;52.232;5.170;2022-10-16T08:17:21;6.40;;;5.80;;
71910;SDS011;59783;52.232;5.170;2022-10-16T08:19:46;5.63;;;5.05;;
71910;SDS011;59783;52.232;5.170;2022-10-16T08:22:12;6.13;;;5.53;;
71910;SDS011;59783;52.232;5.170;2022-10-16T08:24:39;6.00;;;5.40;;
71910;SDS011;59783;52.232;5.170;2022-10-16T08:27:05;6.35;;;5.75;;
71910;SDS011;59783;52.232;5.170;2022-10-16T08:29:31;5.28;;;4.65;;
71910;SDS011;59783;52.232;5.170;2022-10-16T08:31:57;5.97;;;5.38;;
71910;SDS011;59783;52.232;5.170;2022-10-16T08:34:22;4.97;;;4.22;;
71910;SDS011;59783;52.232;5.170;2022-10-16T08:36:47;5.30;;;4.65;;
71910;SDS011;59783;52.232;5.170;2022-10-16T08:39:13;5.20;;;4.60;;
71910;SDS011;59783;52.232;5.170;2022-10-16T08:44:37;5.30;;;4.68;;
71910;SDS011;59783;52.232;5.170;2022-10-16T08:47:16;6.10;;;5.50;;
71910;SDS011;59783;52.232;5.170;2022-10-16T08:50:02;5.28;;;4.68;;
71910;SDS011;59783;52.232;5.170;2022-10-16T08:52:34;6.07;;;5.45;;
71910;SDS011;59783;52.232;5.170;2022-10-16T08:55:00;5.97;;;5.38;;
71910;SDS011;59783;52.232;5.170;2022-10-16T08:57:26;5.88;;;5.28;;
71910;SDS011;59783;52.232;5.170;2022-10-16T08:59:52;8.88;;;8.18;;
71910;SDS011;59783;52.232;5.170;2022-10-16T09:05:17;5.97;;;5.38;;
71910;SDS011;59783;52.232;5.170;2022-10-16T09:10:37;5.93;;;5.32;;
71910;SDS011;59783;52.232;5.170;2022-10-16T09:13:38;6.05;;;5.45;;
71910;SDS011;59783;52.232;5.170;2022-10-16T09:16:28;6.55;;;5.95;;
71910;SDS011;59783;52.232;5.170;2022-10-16T09:24:14;7.27;;;6.63;;
71910;SDS011;59783;52.232;5.170;2022-10-16T09:26:41;6.82;;;6.22;;
71910;SDS011;59783;52.232;5.170;2022-10-16T09:29:08;7.22;;;6.57;;
71910;SDS011;59783;52.232;5.170;2022-10-16T09:31:37;5.93;;;5.32;;
71910;SDS011;59783;52.232;5.170;2022-10-16T09:34:02;6.15;;;5.55;;
71910;SDS011;59783;52.232;5.170;2022-10-16T09:36:32;6.45;;;5.85;;
71910;SDS011;59783;52.232;5.170;2022-10-16T09:39:06;6.22;;;5.63;;
71910;SDS011;59783;52.232;5.170;2022-10-16T09:41:37;7.80;;;7.10;;
71910;SDS011;59783;52.232;5.170;2022-10-16T09:44:04;10.35;;;9.55;;
71910;SDS011;59783;52.232;5.170;2022-10-16T09:46:38;8.00;;;7.30;;
71910;SDS011;59783;52.232;5.170;2022-10-16T09:49:16;11.55;;;10.65;;
71910;SDS011;59783;52.232;5.170;2022-10-16T09:51:45;8.20;;;7.50;;
71910;SDS011;59783;52.232;5.170;2022-10-16T09:54:15;7.95;;;7.25;;
71910;SDS011;59783;52.232;5.170;2022-10-16T09:56:42;8.68;;;7.97;;
71910;SDS011;59783;52.232;5.170;2022-10-16T10:01:44;9.63;;;8.82;;
71910;SDS011;59783;52.232;5.170;2022-10-16T10:04:10;9.50;;;8.70;;
71910;SDS011;59783;52.232;5.170;2022-10-16T10:06:36;7.38;;;6.68;;
71910;SDS011;59783;52.232;5.170;2022-10-16T10:09:13;9.07;;;8.27;;
71910;SDS011;59783;52.232;5.170;2022-10-16T10:11:57;9.30;;;8.50;;
71910;SDS011;59783;52.232;5.170;2022-10-16T10:14:42;8.85;;;8.07;;
71910;SDS011;59783;52.232;5.170;2022-10-16T10:19:50;9.10;;;8.30;;
71910;SDS011;59783;52.232;5.170;2022-10-16T10:22:17;9.43;;;8.63;;
71910;SDS011;59783;52.232;5.170;2022-10-16T10:25:01;8.82;;;8.02;;
71910;SDS011;59783;52.232;5.170;2022-10-16T10:27:39;9.82;;;9.02;;
71910;SDS011;59783;52.232;5.170;2022-10-16T10:47:52;10.48;;;9.57;;
71910;SDS011;59783;52.232;5.170;2022-10-16T11:03:14;11.93;;;10.93;;
71910;SDS011;59783;52.232;5.170;2022-10-16T11:06:26;10.35;;;9.45;;
71910;SDS011;59783;52.232;5.170;2022-10-16T11:12:07;10.35;;;9.45;;
71910;SDS011;59783;52.232;5.170;2022-10-16T11:14:42;10.80;;;9.90;;
71910;SDS011;59783;52.232;5.170;2022-10-16T11:17:14;10.77;;;9.88;;
71910;SDS011;59783;52.232;5.170;2022-10-16T11:19:48;11.93;;;10.93;;
71910;SDS011;59783;52.232;5.170;2022-10-16T11:22:18;11.95;;;10.95;;
71910;SDS011;59783;52.232;5.170;2022-10-16T11:27:47;13.23;;;12.23;;
71910;SDS011;59783;52.232;5.170;2022-10-16T11:30:28;11.32;;;10.40;;
71910;SDS011;59783;52.232;5.170;2022-10-16T11:35:37;13.38;;;12.32;;
71910;SDS011;59783;52.232;5.170;2022-10-16T11:38:54;12.88;;;11.85;;
71910;SDS011;59783;52.232;5.170;2022-10-16T11:41:01;13.77;;;12.68;;
71910;SDS011;59783;52.232;5.170;2022-10-16T11:46:15;13.05;;;11.98;;
71910;SDS011;59783;52.232;5.170;2022-10-16T11:48:50;13.15;;;12.05;;
71910;SDS011;59783;52.232;5.170;2022-10-16T11:51:36;13.50;;;12.40;;
71910;SDS011;59783;52.232;5.170;2022-10-16T11:56:53;13.27;;;12.18;;
71910;SDS011;59783;52.232;5.170;2022-10-16T12:01:53;15.40;;;14.18;;
71910;SDS011;59783;52.232;5.170;2022-10-16T12:04:31;14.57;;;13.38;;
71910;SDS011;59783;52.232;5.170;2022-10-16T12:07:02;13.77;;;12.65;;
71910;SDS011;59783;52.232;5.170;2022-10-16T12:09:31;14.23;;;13.02;;
71910;SDS011;59783;52.232;5.170;2022-10-16T12:11:58;16.90;;;15.60;;
71910;SDS011;59783;52.232;5.170;2022-10-16T12:14:33;17.45;;;16.13;;
71910;SDS011;59783;52.232;5.170;2022-10-16T12:20:00;17.33;;;16.00;;
71910;SDS011;59783;52.232;5.170;2022-10-16T12:22:54;16.13;;;14.82;;
71910;SDS011;59783;52.232;5.170;2022-10-16T12:25:28;15.52;;;14.30;;
71910;SDS011;59783;52.232;5.170;2022-10-16T12:27:59;17.08;;;15.77;;
71910;SDS011;59783;52.232;5.170;2022-10-16T12:30:28;16.30;;;15.00;;
71910;SDS011;59783;52.232;5.170;2022-10-16T12:32:56;16.88;;;15.55;;
71910;SDS011;59783;52.232;5.170;2022-10-16T12:37:52;15.27;;;14.05;;
71910;SDS011;59783;52.232;5.170;2022-10-16T12:40:30;17.08;;;15.68;;
71910;SDS011;59783;52.232;5.170;2022-10-16T12:42:57;15.82;;;14.50;;
71910;SDS011;59783;52.232;5.170;2022-10-16T12:47:53;15.77;;;14.48;;
71910;SDS011;59783;52.232;5.170;2022-10-16T12:50:30;14.90;;;13.60;;
71910;SDS011;59783;52.232;5.170;2022-10-16T12:52:59;14.82;;;13.52;;
71910;SDS011;59783;52.232;5.170;2022-10-16T12:55:25;15.90;;;14.50;;
71910;SDS011;59783;52.232;5.170;2022-10-16T12:58:00;14.52;;;13.23;;
71910;SDS011;59783;52.232;5.170;2022-10-16T13:00:33;15.43;;;14.10;;
71910;SDS011;59783;52.232;5.170;2022-10-16T13:06:00;14.65;;;13.35;;
71910;SDS011;59783;52.232;5.170;2022-10-16T13:08:50;14.98;;;13.65;;
71910;SDS011;59783;52.232;5.170;2022-10-16T13:14:20;14.55;;;13.25;;
71910;SDS011;59783;52.232;5.170;2022-10-16T13:27:56;15.90;;;14.50;;
71910;SDS011;59783;52.232;5.170;2022-10-16T13:30:23;16.15;;;14.75;;
71910;SDS011;59783;52.232;5.170;2022-10-16T13:33:00;16.88;;;15.43;;
71910;SDS011;59783;52.232;5.170;2022-10-16T13:35:31;18.42;;;16.90;;
71910;SDS011;59783;52.232;5.170;2022-10-16T13:40:49;18.92;;;17.33;;
71910;SDS011;59783;52.232;5.170;2022-10-16T13:43:20;16.77;;;15.38;;
71910;SDS011;59783;52.232;5.170;2022-10-16T13:45:55;13.90;;;12.60;;
71910;SDS011;59783;52.232;5.170;2022-10-16T13:48:21;14.45;;;13.13;;
71910;SDS011;59783;52.232;5.170;2022-10-16T13:50:57;17.15;;;15.73;;
71910;SDS011;59783;52.232;5.170;2022-10-16T13:53:25;15.02;;;13.70;;
71910;SDS011;59783;52.232;5.170;2022-10-16T13:55:50;16.23;;;14.82;;
71910;SDS011;59783;52.232;5.170;2022-10-16T13:58:16;16.55;;;15.15;;
71910;SDS011;59783;52.232;5.170;2022-10-16T14:00:52;16.20;;;14.85;;
71910;SDS011;59783;52.232;5.170;2022-10-16T14:03:22;15.80;;;14.45;;
71910;SDS011;59783;52.232;5.170;2022-10-16T14:05:49;15.57;;;14.25;;
71910;SDS011;59783;52.232;5.170;2022-10-16T14:08:15;23.58;;;21.83;;
71910;SDS011;59783;52.232;5.170;2022-10-16T14:10:41;16.55;;;15.15;;
71910;SDS011;59783;52.232;5.170;2022-10-16T14:13:07;16.98;;;15.52;;
71910;SDS011;59783;52.232;5.170;2022-10-16T14:15:37;15.90;;;14.55;;
71910;SDS011;59783;52.232;5.170;2022-10-16T14:18:02;17.08;;;15.68;;
71910;SDS011;59783;52.232;5.170;2022-10-16T14:20:29;15.40;;;14.10;;
71910;SDS011;59783;52.232;5.170;2022-10-16T14:25:40;21.45;;;19.80;;
71910;SDS011;59783;52.232;5.170;2022-10-16T14:28:21;18.27;;;16.80;;
71910;SDS011;59783;52.232;5.170;2022-10-16T14:36:11;15.88;;;14.55;;
71910;SDS011;59783;52.232;5.170;2022-10-16T14:38:38;15.50;;;14.20;;
71910;SDS011;59783;52.232;5.170;2022-10-16T14:41:04;16.23;;;14.85;;
71910;SDS011;59783;52.232;5.170;2022-10-16T14:43:37;17.20;;;15.80;;
71910;SDS011;59783;52.232;5.170;2022-10-16T14:46:08;16.45;;;15.05;;
71910;SDS011;59783;52.232;5.170;2022-10-16T14:48:42;17.20;;;15.80;;
71910;SDS011;59783;52.232;5.170;2022-10-16T14:51:13;16.50;;;15.10;;
71910;SDS011;59783;52.232;5.170;2022-10-16T14:53:39;15.75;;;14.43;;
71910;SDS011;59783;52.232;5.170;2022-10-16T14:56:15;17.13;;;15.73;;
71910;SDS011;59783;52.232;5.170;2022-10-16T14:58:43;14.20;;;12.98;;
71910;SDS011;59783;52.232;5.170;2022-10-16T15:01:09;15.02;;;13.73;;
71910;SDS011;59783;52.232;5.170;2022-10-16T15:03:36;14.77;;;13.50;;
71910;SDS011;59783;52.232;5.170;2022-10-16T15:06:01;14.52;;;13.30;;
71910;SDS011;59783;52.232;5.170;2022-10-16T15:08:27;16.00;;;14.70;;
71910;SDS011;59783;52.232;5.170;2022-10-16T15:10:52;14.52;;;13.30;;
71910;SDS011;59783;52.232;5.170;2022-10-16T15:13:17;13.90;;;12.70;;
71910;SDS011;59783;52.232;5.170;2022-10-16T15:15:43;15.75;;;14.45;;
71910;SDS011;59783;52.232;5.170;2022-10-16T15:18:10;16.10;;;14.77;;
71910;SDS011;59783;52.232;5.170;2022-10-16T15:20:36;20.23;;;18.63;;
71910;SDS011;59783;52.232;5.170;2022-10-16T15:23:03;14.73;;;13.43;;
71910;SDS011;59783;52.232;5.170;2022-10-16T15:25:33;16.17;;;14.75;;
71910;SDS011;59783;52.232;5.170;2022-10-16T15:28:01;15.57;;;14.18;;
71910;SDS011;59783;52.232;5.170;2022-10-16T15:30:27;15.85;;;14.45;;
71910;SDS011;59783;52.232;5.170;2022-10-16T15:32:53;14.93;;;13.52;;
71910;SDS011;59783;52.232;5.170;2022-10-16T15:35:18;15.35;;;13.95;;
71910;SDS011;59783;52.232;5.170;2022-10-16T15:37:44;14.27;;;12.95;;
71910;SDS011;59783;52.232;5.170;2022-10-16T15:40:11;13.85;;;12.52;;
71910;SDS011;59783;52.232;5.170;2022-10-16T15:42:36;15.10;;;13.70;;
71910;SDS011;59783;52.232;5.170;2022-10-16T15:45:02;15.10;;;13.68;;
71910;SDS011;59783;52.232;5.170;2022-10-16T15:47:28;14.93;;;13.50;;
71910;SDS011;59783;52.232;5.170;2022-10-16T15:49:54;14.50;;;13.07;;
71910;SDS011;59783;52.232;5.170;2022-10-16T15:52:19;15.85;;;14.35;;
71910;SDS011;59783;52.232;5.170;2022-10-16T15:54:45;14.90;;;13.48;;
71910;SDS011;59783;52.232;5.170;2022-10-16T15:57:10;16.38;;;14.85;;
71910;SDS011;59783;52.232;5.170;2022-10-16T15:59:35;15.82;;;14.32;;
71910;SDS011;59783;52.232;5.170;2022-10-16T16:02:01;14.73;;;13.25;;
71910;SDS011;59783;52.232;5.170;2022-10-16T16:04:26;14.63;;;13.18;;
71910;SDS011;59783;52.232;5.170;2022-10-16T16:06:54;19.35;;;17.65;;
71910;SDS011;59783;52.232;5.170;2022-10-16T16:09:20;15.38;;;13.98;;
71910;SDS011;59783;52.232;5.170;2022-10-16T16:11:45;15.75;;;14.27;;
71910;SDS011;59783;52.232;5.170;2022-10-16T16:14:11;15.73;;;14.30;;
71910;SDS011;59783;52.232;5.170;2022-10-16T16:16:38;15.50;;;14.07;;
71910;SDS011;59783;52.232;5.170;2022-10-16T16:19:04;20.58;;;18.88;;
71910;SDS011;59783;52.232;5.170;2022-10-16T16:21:31;16.13;;;14.68;;
71910;SDS011;59783;52.232;5.170;2022-10-16T16:23:56;17.77;;;16.17;;
71910;SDS011;59783;52.232;5.170;2022-10-16T16:26:23;16.25;;;14.75;;
71910;SDS011;59783;52.232;5.170;2022-10-16T16:28:50;17.33;;;15.82;;
71910;SDS011;59783;52.232;5.170;2022-10-16T16:31:16;18.48;;;16.88;;